Time;durP1;ratioP1;P1;durP2;ratioP2;P2;SDS_P1;SDS_P2;PMS_P1;PMS_P2;Temp;Humidity;BMP_temperature;BMP_pressure;BME280_temperature;BME280_humidity;BME280_pressure;Samples;Min_cycle;Max_cycle;Signal;HPM_P1;HPM_P2
2023/12/06 00:01:03;;;;;;;1.40;0.75;;;;;;;-2.47;85.48;100919.03;5046907;28;20033;-68
2023/12/06 00:03:28;;;;;;;0.60;0.60;;;;;;;-2.50;85.53;100917.19;5046826;28;20028;-67
2023/12/06 00:05:54;;;;;;;1.27;1.23;;;;;;;-2.53;85.51;100928.09;5046695;28;20497;-68
2023/12/06 00:08:19;;;;;;;1.38;0.98;;;;;;;-2.53;85.53;100925.56;5046853;28;20026;-68
2023/12/06 00:10:45;;;;;;;0.68;0.68;;;;;;;-2.56;85.62;100920.31;5046811;28;20030;-68
2023/12/06 00:13:10;;;;;;;0.57;0.57;;;;;;;-2.58;85.77;100918.44;5046846;28;20032;-67
2023/12/06 00:15:36;;;;;;;0.63;0.63;;;;;;;-2.58;85.60;100932.06;5045061;28;20025;-68
2023/12/06 00:18:01;;;;;;;0.90;0.90;;;;;;;-2.59;85.81;100930.31;5028850;28;20129;-68
2023/12/06 00:20:26;;;;;;;0.60;0.60;;;;;;;-2.62;85.85;100925.91;5046573;28;20048;-68
2023/12/06 00:22:52;;;;;;;0.93;0.93;;;;;;;-2.60;85.80;100923.47;5046078;28;20077;-68
2023/12/06 00:25:17;;;;;;;0.50;0.50;;;;;;;-2.60;85.76;100923.47;5046245;28;20043;-68
2023/12/06 00:27:42;;;;;;;1.00;0.85;;;;;;;-2.60;85.81;100927.69;5046518;28;20064;-68
2023/12/06 00:30:08;;;;;;;0.50;0.50;;;;;;;-2.64;85.72;100914.81;5028247;28;20025;-68
2023/12/06 00:32:34;;;;;;;0.80;0.80;;;;;;;-2.62;85.68;100914.91;5028519;28;20026;-68
2023/12/06 00:34:59;;;;;;;3.03;1.38;;;;;;;-2.63;85.87;100919.09;5046234;28;20025;-68
2023/12/06 00:37:24;;;;;;;0.80;0.80;;;;;;;-2.56;85.68;100927.03;5028545;28;20028;-67
2023/12/06 00:39:50;;;;;;;0.70;0.70;;;;;;;-2.56;85.70;100925.38;5045969;28;20021;-68
2023/12/06 00:42:15;;;;;;;1.25;1.17;;;;;;;-2.58;85.96;100923.53;5046095;28;20032;-69
2023/12/06 00:44:40;;;;;;;5.88;2.88;;;;;;;-2.59;86.01;100924.34;5046252;28;20033;-69
2023/12/06 00:47:06;;;;;;;0.80;0.80;;;;;;;-2.71;85.95;100915.25;5028154;28;20029;-68
2023/12/06 00:49:31;;;;;;;0.55;0.55;;;;;;;-2.63;85.82;100924.19;5045358;28;20025;-69
2023/12/06 00:51:58;;;;;;;1.17;1.08;;;;;;;-2.60;85.80;100920.06;5046019;28;20040;-67
2023/12/06 00:54:23;;;;;;;1.85;0.80;;;;;;;-2.57;86.15;100930.41;5045707;28;20532;-68
2023/12/06 00:56:48;;;;;;;0.98;0.90;;;;;;;-2.60;85.76;100935.31;5045766;28;20026;-67
2023/12/06 00:59:14;;;;;;;1.27;1.23;;;;;;;-2.62;85.82;100928.47;5045901;28;20029;-68
2023/12/06 01:01:39;;;;;;;0.50;0.50;;;;;;;-2.57;85.87;100931.25;5045746;28;20028;-67
2023/12/06 01:04:04;;;;;;;1.00;1.00;;;;;;;-2.57;85.84;100931.25;5044127;28;20114;-67
2023/12/06 01:06:30;;;;;;;0.47;0.47;;;;;;;-2.62;85.76;100923.38;5045705;28;20025;-68
2023/12/06 01:08:55;;;;;;;0.60;0.60;;;;;;;-2.63;85.65;100931.81;5045551;28;20514;-68
2023/12/06 01:11:21;;;;;;;0.80;0.80;;;;;;;-2.67;85.61;100926.47;5045308;28;20026;-68
2023/12/06 01:13:46;;;;;;;0.57;0.57;;;;;;;-2.63;85.69;100941.09;5027317;28;20044;-67
2023/12/06 01:16:11;;;;;;;0.50;0.50;;;;;;;-2.65;85.71;100940.16;5045524;28;20032;-68
2023/12/06 01:18:37;;;;;;;0.60;0.60;;;;;;;-2.67;85.78;100931.56;5045477;28;20433;-67
2023/12/06 01:21:02;;;;;;;0.60;0.60;;;;;;;-2.71;85.82;100927.06;5045198;28;20057;-68
2023/12/06 01:23:28;;;;;;;0.80;0.80;;;;;;;-2.66;85.79;100943.47;5045281;28;20032;-67
2023/12/06 01:25:53;;;;;;;1.45;1.35;;;;;;;-2.71;85.97;100932.16;5045321;28;20031;-67
2023/12/06 01:28:20;;;;;;;1.85;0.93;;;;;;;-2.72;85.75;100928.78;5027607;28;20041;-68
2023/12/06 01:30:45;;;;;;;0.80;0.80;;;;;;;-2.75;85.83;100926.91;5045246;28;20397;-68
2023/12/06 01:33:10;;;;;;;0.90;0.90;;;;;;;-2.76;85.72;100930.25;5045482;28;20033;-68
2023/12/06 01:35:39;;;;;;;0.50;0.50;;;;;;;-2.77;85.73;100933.59;5045171;28;20033;-67
2023/12/06 01:38:04;;;;;;;0.70;0.70;;;;;;;-2.79;85.63;100924.13;5027553;28;20041;-69
2023/12/06 01:40:30;;;;;;;1.45;1.35;;;;;;;-2.82;85.64;100924.84;5044759;28;20028;-68
2023/12/06 01:42:55;;;;;;;0.75;0.75;;;;;;;-2.80;85.63;100941.06;5045070;28;20021;-68
2023/12/06 01:45:20;;;;;;;0.68;0.68;;;;;;;-2.83;85.52;100940.91;5045053;28;20031;-68
2023/12/06 01:47:47;;;;;;;1.10;1.00;;;;;;;-2.86;85.72;100945.81;5044957;28;20029;-68
2023/12/06 01:50:14;;;;;;;0.80;0.80;;;;;;;-2.84;85.78;100941.66;5044529;28;20499;-67
2023/12/06 01:52:39;;;;;;;0.65;0.65;;;;;;;-2.86;85.73;100935.66;5045112;28;20025;-68
2023/12/06 01:55:05;;;;;;;1.27;1.23;;;;;;;-2.87;85.75;100939.84;5026934;28;20509;-69
2023/12/06 01:57:31;;;;;;;0.50;0.50;;;;;;;-2.85;85.65;100939.94;5044931;28;20021;-68
2023/12/06 01:59:57;;;;;;;0.50;0.50;;;;;;;-2.84;86.00;100944.22;5044641;28;20021;-68
2023/12/06 02:02:25;;;;;;;0.70;0.70;;;;;;;-2.84;85.65;100943.34;5043930;28;20021;-68
2023/12/06 02:04:51;;;;;;;0.47;0.47;;;;;;;-2.89;85.59;100936.34;5010685;28;20029;-68
2023/12/06 02:07:17;;;;;;;9.35;1.02;;;;;;;-2.90;85.70;100941.34;5045017;28;20046;-68
2023/12/06 02:09:44;;;;;;;0.60;0.60;;;;;;;-2.84;85.65;100946.75;5044483;28;20025;-68
2023/12/06 02:12:09;;;;;;;0.60;0.60;;;;;;;-2.87;85.80;100947.47;5044896;28;20037;-68
2023/12/06 02:14:35;;;;;;;0.65;0.65;;;;;;;-2.89;85.65;100946.50;5044679;28;20029;-68
2023/12/06 02:17:05;;;;;;;0.70;0.70;;;;;;;-2.86;85.61;100955.97;5026399;28;20026;-68
2023/12/06 02:19:31;;;;;;;0.70;0.70;;;;;;;-2.91;85.56;100944.66;5044836;28;20053;-67
2023/12/06 02:21:58;;;;;;;1.35;1.27;;;;;;;-2.92;85.74;100940.34;5044380;28;20057;-68
2023/12/06 02:24:28;;;;;;;0.90;0.88;;;;;;;-2.86;85.78;100943.28;5044434;28;20025;-69
2023/12/06 02:26:54;;;;;;;0.50;0.50;;;;;;;-2.90;85.47;100939.69;5026792;28;20025;-68
2023/12/06 02:29:19;;;;;;;0.60;0.60;;;;;;;-2.87;85.54;100944.03;5044506;28;20025;-68
2023/12/06 02:31:45;;;;;;;0.70;0.70;;;;;;;-2.88;85.72;100943.19;5026716;28;20033;-68
2023/12/06 02:34:16;;;;;;;0.70;0.70;;;;;;;-2.86;85.65;100943.28;5044664;28;20109;-68
2023/12/06 02:36:45;;;;;;;0.70;0.70;;;;;;;-2.83;85.77;100945.09;5044484;28;20053;-68
2023/12/06 02:39:10;;;;;;;0.60;0.60;;;;;;;-2.89;85.67;100935.47;5044744;28;20277;-69
2023/12/06 02:41:36;;;;;;;1.10;1.08;;;;;;;-2.82;85.47;100942.63;5026646;28;20056;-69
2023/12/06 02:44:01;;;;;;;0.40;0.40;;;;;;;-2.83;85.41;100942.56;5026654;28;20028;-69
2023/12/06 02:46:27;;;;;;;0.50;0.50;;;;;;;-2.83;85.52;100935.81;5044871;28;20024;-68
2023/12/06 02:48:53;;;;;;;0.88;0.88;;;;;;;-2.83;85.57;100937.47;5026618;28;20022;-68
2023/12/06 02:51:18;;;;;;;0.80;0.73;;;;;;;-2.78;85.46;100941.16;5044425;28;20017;-68
2023/12/06 02:53:43;;;;;;;0.50;0.50;;;;;;;-2.80;85.41;100943.59;5044331;28;20018;-69
2023/12/06 02:56:09;;;;;;;0.60;0.60;;;;;;;-2.81;85.46;100954.53;5044200;28;20330;-69
2023/12/06 02:58:34;;;;;;;0.50;0.50;;;;;;;-2.83;85.41;100951.06;5044475;28;20036;-68
2023/12/06 03:01:00;;;;;;;0.73;0.73;;;;;;;-2.79;85.35;100950.44;5044077;28;20017;-69
2023/12/06 03:03:25;;;;;;;1.40;1.33;;;;;;;-2.82;85.29;100949.38;5044125;28;20022;-69
2023/12/06 03:05:51;;;;;;;0.70;0.70;;;;;;;-2.96;85.34;100929.19;5044528;28;20025;-68
2023/12/06 03:08:16;;;;;;;0.60;0.60;;;;;;;-2.82;85.25;100951.91;5044279;28;20057;-69
2023/12/06 03:10:41;;;;;;;0.90;0.90;;;;;;;-2.83;85.19;100962.88;5044011;28;20021;-68
2023/12/06 03:13:07;;;;;;;0.63;0.63;;;;;;;-2.89;85.23;100951.56;5046510;28;20489;-68
2023/12/06 03:15:32;;;;;;;1.27;1.27;;;;;;;-2.93;85.28;100957.28;5029771;28;20025;-68
2023/12/06 03:17:57;;;;;;;0.50;0.50;;;;;;;-2.94;85.01;100962.28;5029846;28;20018;-69
2023/12/06 03:20:23;;;;;;;0.60;0.60;;;;;;;-2.96;84.90;100954.59;5029714;28;20017;-69
2023/12/06 03:22:48;;;;;;;0.60;0.60;;;;;;;-3.00;84.97;100963.69;5047334;28;20092;-68
2023/12/06 03:25:14;;;;;;;0.70;0.70;;;;;;;-3.08;84.88;100944.59;5047514;28;20022;-69
2023/12/06 03:27:39;;;;;;;0.50;0.50;;;;;;;-3.09;84.88;100947.94;5047676;28;20022;-68
2023/12/06 03:30:06;;;;;;;0.75;0.75;;;;;;;-3.12;84.82;100952.84;5047161;28;20049;-67
2023/12/06 03:32:31;;;;;;;0.60;0.60;;;;;;;-3.15;84.87;100950.13;5047396;28;20024;-67
2023/12/06 03:34:57;;;;;;;0.55;0.55;;;;;;;-3.17;85.05;100961.88;5047420;28;20025;-67
2023/12/06 03:37:22;;;;;;;0.60;0.60;;;;;;;-3.18;85.04;100952.50;5029517;28;20026;-68
2023/12/06 03:39:47;;;;;;;0.60;0.60;;;;;;;-3.20;84.99;100949.88;5047094;28;20017;-68
2023/12/06 03:42:13;;;;;;;0.60;0.60;;;;;;;-3.21;85.10;100959.94;5046866;28;20029;-68
2023/12/06 03:44:38;;;;;;;0.60;0.60;;;;;;;-3.20;85.07;100956.59;5047131;28;20028;-68
2023/12/06 03:47:03;;;;;;;0.60;0.60;;;;;;;-3.26;84.99;100944.47;5029335;28;20029;-67
2023/12/06 03:49:29;;;;;;;0.50;0.50;;;;;;;-3.25;85.04;100954.69;5047052;28;20025;-68
2023/12/06 03:51:54;;;;;;;0.60;0.60;;;;;;;-3.30;84.88;100957.75;5047137;28;20025;-68
2023/12/06 03:54:19;;;;;;;0.60;0.60;;;;;;;-3.29;84.92;100965.44;5047036;28;20025;-68
2023/12/06 03:56:45;;;;;;;0.57;0.57;;;;;;;-3.32;84.97;100959.34;5046689;28;20084;-68
2023/12/06 03:59:10;;;;;;;0.50;0.50;;;;;;;-3.36;84.93;100955.75;5029108;28;20045;-68
2023/12/06 04:01:35;;;;;;;0.80;0.80;;;;;;;-3.39;85.13;100963.19;5047341;28;20075;-67
2023/12/06 04:04:01;;;;;;;2.45;1.05;;;;;;;-3.39;84.99;100960.66;5046584;28;20481;-68
2023/12/06 04:06:26;;;;;;;1.30;1.20;;;;;;;-3.44;85.04;100955.31;5047132;28;20025;-68
2023/12/06 04:08:52;;;;;;;1.45;0.75;;;;;;;-3.42;84.94;100957.94;5046725;28;20095;-67
2023/12/06 04:11:17;;;;;;;3.60;0.80;;;;;;;-3.44;85.12;100954.41;5046642;28;20060;-68
2023/12/06 04:13:42;;;;;;;1.23;0.65;;;;;;;-3.41;84.99;100964.75;5046964;28;20123;-68
2023/12/06 04:16:08;;;;;;;0.65;0.65;;;;;;;-3.40;84.80;100959.75;5046549;28;20109;-69
2023/12/06 04:18:33;;;;;;;0.80;0.80;;;;;;;-3.37;84.97;100966.69;5028614;28;20029;-68
2023/12/06 04:20:59;;;;;;;0.70;0.70;;;;;;;-3.38;85.17;100981.06;5046379;28;20095;-68
2023/12/06 04:23:24;;;;;;;1.27;1.00;;;;;;;-3.34;85.03;100973.59;5046073;28;20088;-68
2023/12/06 04:25:49;;;;;;;0.55;0.55;;;;;;;-3.33;85.03;100983.84;5045878;28;20025;-69
2023/12/06 04:28:15;;;;;;;0.73;0.73;;;;;;;-3.32;84.89;100972.03;5046430;28;20031;-68
2023/12/06 04:30:40;;;;;;;0.50;0.50;;;;;;;-3.34;84.93;100966.00;5046174;28;20033;-68
2023/12/06 04:33:05;;;;;;;0.98;0.98;;;;;;;-3.32;85.03;100975.44;5046619;28;20029;-68
2023/12/06 04:35:31;;;;;;;0.90;0.90;;;;;;;-3.34;84.93;100966.00;5028361;28;20022;-69
2023/12/06 04:37:56;;;;;;;2.05;0.80;;;;;;;-3.28;84.83;100985.00;5046178;28;20036;-67
2023/12/06 04:40:21;;;;;;;0.95;0.95;;;;;;;-3.26;84.94;100980.88;5046254;28;20025;-69
2023/12/06 04:42:47;;;;;;;0.73;0.73;;;;;;;-3.29;84.82;100975.59;5028132;28;20552;-68
2023/12/06 04:45:12;;;;;;;1.10;1.00;;;;;;;-3.25;84.73;100980.09;5046064;28;20032;-69
2023/12/06 04:47:37;;;;;;;0.82;0.82;;;;;;;-3.26;84.83;100969.84;5046312;28;20117;-69
2023/12/06 04:50:03;;;;;;;0.80;0.80;;;;;;;-3.22;84.79;100975.97;5045811;28;20025;-68
2023/12/06 04:52:28;;;;;;;0.55;0.55;;;;;;;-3.20;84.72;100972.75;5028168;28;20097;-69
2023/12/06 04:54:54;;;;;;;0.50;0.50;;;;;;;-3.20;84.47;100974.38;5045840;28;20029;-68
2023/12/06 04:57:19;;;;;;;0.50;0.50;;;;;;;-3.21;84.39;100976.03;5028128;28;20577;-69
2023/12/06 04:59:45;;;;;;;0.70;0.70;;;;;;;-3.25;84.43;100975.00;5045724;28;20048;-68
2023/12/06 05:02:10;;;;;;;0.80;0.80;;;;;;;-3.31;84.25;100959.44;5028052;28;20021;-69
2023/12/06 05:04:35;;;;;;;0.50;0.50;;;;;;;-3.22;84.54;100961.59;5045690;28;20029;-69
2023/12/06 05:07:01;;;;;;;0.98;0.98;;;;;;;-3.18;84.40;100978.75;5045752;28;20041;-68
2023/12/06 05:09:28;;;;;;;0.65;0.65;;;;;;;-3.20;84.25;100982.00;5045428;28;20100;-68
2023/12/06 05:11:53;;;;;;;0.60;0.60;;;;;;;-3.21;84.27;100978.59;5027687;28;20030;-68
2023/12/06 05:14:19;;;;;;;0.50;0.50;;;;;;;-3.27;84.26;100978.22;5045538;28;20082;-68
2023/12/06 05:16:44;;;;;;;0.50;0.50;;;;;;;-3.25;84.27;100990.25;5045334;28;20087;-68
2023/12/06 05:19:09;;;;;;;0.50;0.50;;;;;;;-3.32;83.95;100965.28;5027307;28;20088;-67
2023/12/06 05:21:34;;;;;;;3.40;0.98;;;;;;;-3.27;83.88;100986.75;5033637;28;20151;-67
2023/12/06 05:24:00;;;;;;;0.77;0.77;;;;;;;-3.22;83.71;100991.19;5047232;28;20037;-68
2023/12/06 05:26:26;;;;;;;0.60;0.60;;;;;;;-3.22;83.94;100991.19;5065164;28;20067;-68
2023/12/06 05:28:52;;;;;;;0.90;0.90;;;;;;;-3.28;83.89;100982.47;5065249;28;20084;-69
2023/12/06 05:31:17;;;;;;;0.50;0.50;;;;;;;-3.27;83.96;100986.75;5065165;28;20024;-69
2023/12/06 05:33:43;;;;;;;1.15;1.15;;;;;;;-3.25;83.70;100990.25;5065319;28;20035;-68
2023/12/06 05:36:08;;;;;;;0.90;0.90;;;;;;;-3.33;83.80;100978.78;5046843;28;20035;-68
2023/12/06 05:38:34;;;;;;;1.35;1.25;;;;;;;-3.34;83.72;100978.69;5065179;28;20084;-68
2023/12/06 05:41:00;;;;;;;0.50;0.50;;;;;;;-3.35;83.71;100982.88;5064904;28;20025;-68
2023/12/06 05:43:25;;;;;;;0.75;0.75;;;;;;;-3.37;83.72;100987.88;5064959;28;20033;-68
2023/12/06 05:45:50;;;;;;;0.95;0.80;;;;;;;-3.39;83.54;100988.56;5065173;28;20028;-68
2023/12/06 05:48:16;;;;;;;0.50;0.50;;;;;;;-3.38;83.77;100996.28;5065151;28;20047;-68
2023/12/06 05:50:41;;;;;;;0.80;0.80;;;;;;;-3.34;83.51;100987.19;5065294;28;20064;-70
2023/12/06 05:53:06;;;;;;;0.68;0.68;;;;;;;-3.30;83.33;100999.25;5064650;28;20103;-69
2023/12/06 05:55:32;;;;;;;0.50;0.50;;;;;;;-3.29;83.44;101001.00;5064904;28;20029;-69
2023/12/06 05:57:57;;;;;;;0.52;0.52;;;;;;;-3.30;83.68;101001.81;5065114;28;20036;-69
2023/12/06 06:00:24;;;;;;;0.70;0.70;;;;;;;-3.26;83.46;101006.25;5064837;28;20021;-69
2023/12/06 06:02:51;;;;;;;0.68;0.68;;;;;;;-3.22;83.67;101002.25;5046978;28;20025;-69
2023/12/06 06:05:18;;;;;;;0.50;0.50;;;;;;;-3.07;83.16;101007.34;5046892;28;20029;-68
2023/12/06 06:07:43;;;;;;;0.50;0.50;;;;;;;-3.14;83.09;100987.44;5064989;28;20040;-69
2023/12/06 06:10:09;;;;;;;0.60;0.60;;;;;;;-3.15;83.25;100994.19;5064533;28;20025;-68
2023/12/06 06:12:34;;;;;;;0.90;0.90;;;;;;;-3.04;82.96;101006.63;5064804;28;20021;-69
2023/12/06 06:15:00;;;;;;;0.70;0.70;;;;;;;-3.06;82.88;100998.91;5064915;28;20029;-69
2023/12/06 06:17:25;;;;;;;0.60;0.60;;;;;;;-2.91;82.80;101001.47;5065032;28;20027;-68
2023/12/06 06:19:50;;;;;;;0.52;0.52;;;;;;;-2.92;82.54;100991.19;5064707;28;20029;-69
2023/12/06 06:22:16;;;;;;;0.70;0.70;;;;;;;-2.92;82.93;101001.34;5064693;28;20052;-68
2023/12/06 06:24:41;;;;;;;0.50;0.50;;;;;;;-2.85;82.54;100998.38;5064479;28;20031;-69
2023/12/06 06:27:07;;;;;;;0.50;0.50;;;;;;;-2.71;82.50;100996.59;5064687;28;20032;-71
2023/12/06 06:29:32;;;;;;;0.50;0.50;;;;;;;-2.78;82.65;101003.00;5064989;28;20087;-69
2023/12/06 06:31:57;;;;;;;0.50;0.50;;;;;;;-2.65;82.48;101003.72;5064907;28;20052;-70
2023/12/06 06:34:23;;;;;;;1.67;1.08;;;;;;;-2.50;82.05;101002.00;5064560;28;20067;-70
2023/12/06 06:36:48;;;;;;;0.50;0.50;;;;;;;-2.54;81.51;100999.22;5064429;28;20021;-69
2023/12/06 06:39:14;;;;;;;0.50;0.50;;;;;;;-2.56;82.13;101010.94;5064267;28;20112;-70
2023/12/06 06:41:40;;;;;;;0.80;0.80;;;;;;;-2.53;81.85;101001.84;5063739;28;20020;-69
2023/12/06 06:44:05;;;;;;;0.50;0.50;;;;;;;-2.29;81.07;101011.59;5064414;28;20025;-69
2023/12/06 06:46:31;;;;;;;2.08;1.10;;;;;;;-2.38;81.43;101021.25;5046410;28;20067;-69
2023/12/06 06:48:56;;;;;;;0.63;0.63;;;;;;;-2.32;81.34;101011.41;5049783;28;20048;-69
2023/12/06 06:51:35;;;;;;;0.50;0.50;;;;;;;-2.28;80.94;101008.25;5078250;22;20077;-66
2023/12/06 06:54:00;;;;;;;0.40;0.40;;;;;;;-2.20;80.81;101012.84;5025688;28;20490;-67
2023/12/06 06:56:26;;;;;;;0.63;0.63;;;;;;;-2.26;81.05;101008.31;5026782;28;20030;-67
2023/12/06 06:58:51;;;;;;;0.60;0.60;;;;;;;-2.21;80.85;101009.44;5027062;28;20033;-67
2023/12/06 07:01:18;;;;;;;0.93;0.68;;;;;;;-2.16;80.93;101014.78;5026974;28;20032;-67
2023/12/06 07:03:43;;;;;;;1.17;1.13;;;;;;;-2.10;80.53;101009.13;5027242;28;20054;-67
2023/12/06 07:06:09;;;;;;;0.70;0.70;;;;;;;-2.07;80.50;101012.72;5027249;28;20017;-67
2023/12/06 07:08:35;;;;;;;1.50;1.35;;;;;;;-1.97;80.13;101021.72;5027220;28;20533;-68
2023/12/06 07:11:01;;;;;;;0.82;0.82;;;;;;;-1.95;79.83;101029.44;5026836;28;20021;-67
2023/12/06 07:13:26;;;;;;;0.95;0.95;;;;;;;-1.97;79.80;101029.38;5026912;28;20026;-67
2023/12/06 09:27:50;;;;;;;0.73;0.73;;;;;;;-1.47;76.24;101067.53;5078667;28;20157;-64
2023/12/06 09:36:23;;;;;;;0.70;0.70;;;;;;;-1.56;76.60;101027.22;5061085;28;20276;-65
2023/12/06 09:38:49;;;;;;;0.50;0.50;;;;;;;-1.44;76.65;101056.66;5061726;28;20033;-64
2023/12/06 09:41:16;;;;;;;1.38;1.30;;;;;;;-1.46;76.67;101059.13;5061440;28;20028;-64
2023/12/06 09:43:41;;;;;;;0.55;0.55;;;;;;;-1.40;76.45;101068.75;5062123;28;20029;-64
2023/12/06 09:46:07;;;;;;;1.88;1.77;;;;;;;-1.45;76.19;101055.78;5061936;28;20022;-65
2023/12/06 09:48:32;;;;;;;1.15;1.13;;;;;;;-1.31;75.97;101068.34;5043940;28;20059;-64
2023/12/06 09:50:57;;;;;;;0.60;0.60;;;;;;;-1.34;76.16;101058.88;5061534;28;20045;-64
2023/12/06 09:53:24;;;;;;;0.60;0.60;;;;;;;-1.23;75.62;101067.06;5061967;28;20081;-65
2023/12/06 09:55:50;;;;;;;13.82;1.00;;;;;;;-1.40;75.56;101041.63;5060989;28;20032;-64
2023/12/06 09:58:17;;;;;;;5.50;1.48;;;;;;;-1.26;75.53;101057.59;5073654;23;20409;-67
2023/12/06 10:00:43;;;;;;;0.60;0.60;;;;;;;-1.36;75.55;101052.84;5061055;28;20056;-68
2023/12/06 10:03:10;;;;;;;0.47;0.47;;;;;;;-1.31;75.92;101053.94;5061764;28;20017;-67
2023/12/06 10:05:35;;;;;;;0.50;0.50;;;;;;;-1.28;75.85;101066.81;5061270;28;20021;-67
2023/12/06 10:08:00;;;;;;;0.50;0.50;;;;;;;-1.26;75.70;101052.50;5061470;28;20029;-66
2023/12/06 10:10:27;;;;;;;0.50;0.50;;;;;;;-1.21;75.41;101055.28;5060131;28;20025;-67
2023/12/06 10:12:55;;;;;;;0.50;0.50;;;;;;;-1.20;75.58;101059.59;5061130;28;20033;-66
2023/12/06 10:15:20;;;;;;;0.68;0.68;;;;;;;-1.23;75.45;101048.34;5059994;28;20056;-67
2023/12/06 10:17:47;;;;;;;0.68;0.68;;;;;;;-1.26;75.42;101047.41;5081289;28;20079;-67
2023/12/06 10:20:13;;;;;;;0.60;0.60;;;;;;;-1.20;75.42;101061.25;5081228;28;20035;-67
2023/12/06 10:22:39;;;;;;;0.50;0.50;;;;;;;-1.09;74.61;101038.84;5081130;28;20027;-67
2023/12/06 10:25:06;;;;;;;0.50;0.50;;;;;;;-1.20;75.29;101046.84;5063112;28;20017;-68
2023/12/06 10:27:32;;;;;;;0.40;0.40;;;;;;;-1.22;75.19;101040.78;5062602;28;20017;-68
2023/12/06 10:29:57;;;;;;;0.75;0.75;;;;;;;-1.21;75.12;101036.53;5112482;23;20051;-68
2023/12/06 10:32:23;;;;;;;0.70;0.68;;;;;;;-1.25;75.30;101033.84;5121678;28;20031;-68
2023/12/06 10:34:49;;;;;;;0.50;0.50;;;;;;;-1.18;75.32;101039.28;5121523;28;20444;-68
2023/12/06 10:37:20;;;;;;;0.52;0.52;;;;;;;-1.13;74.88;101025.06;5135794;22;20645;-67
2023/12/06 10:39:49;;;;;;;2.97;2.80;;;;;;;-1.13;74.81;101036.16;5107992;28;20043;-67
2023/12/06 10:42:18;;;;;;;0.57;0.57;;;;;;;-1.15;74.92;101029.25;5107589;28;20024;-67
2023/12/06 10:44:44;;;;;;;0.70;0.70;;;;;;;-1.14;74.93;101024.22;5116551;23;20079;-68
2023/12/06 10:47:11;;;;;;;0.50;0.50;;;;;;;-1.06;74.65;101032.25;5112629;23;20055;-67
2023/12/06 10:49:37;;;;;;;0.88;0.88;;;;;;;-1.06;74.37;101026.25;5106796;28;20016;-67
2023/12/06 10:52:04;;;;;;;1.25;0.90;;;;;;;-1.09;74.36;101034.63;5089541;28;20027;-67
2023/12/06 10:54:29;;;;;;;0.55;0.55;;;;;;;-1.03;74.30;101037.50;5107340;28;20076;-67
2023/12/06 10:56:56;;;;;;;0.60;0.60;;;;;;;-1.05;74.36;101036.53;5107469;28;20054;-67
2023/12/06 10:59:25;;;;;;;0.80;0.80;;;;;;;-1.08;74.46;101030.41;5088363;23;20055;-68
2023/12/06 11:01:54;;;;;;;0.55;0.55;;;;;;;-1.06;73.92;101021.16;5108357;23;20052;-67
2023/12/06 11:04:21;;;;;;;0.50;0.50;;;;;;;-1.09;74.07;101024.44;5107203;28;20020;-67
2023/12/06 11:07:17;;;;;;;0.60;0.60;;;;;;;-1.06;74.46;101042.44;5088897;28;20092;-67
2023/12/06 11:09:49;;;;;;;0.63;0.60;;;;;;;-1.02;74.64;101040.88;5107378;28;20031;-67
2023/12/06 11:12:22;;;;;;;0.60;0.60;;;;;;;-1.00;74.14;101035.09;5107099;28;20028;-67
2023/12/06 11:15:00;;;;;;;0.50;0.50;;;;;;;-1.03;74.55;101039.16;5107107;28;20028;-68
2023/12/06 11:17:28;;;;;;;0.50;0.50;;;;;;;-0.94;74.44;101051.50;5107151;28;20020;-68
2023/12/06 11:19:54;;;;;;;0.50;0.50;;;;;;;-1.03;74.26;101024.75;5107007;28;20024;-68
2023/12/06 11:22:23;;;;;;;0.70;0.70;;;;;;;-1.00;74.41;101040.19;5088892;28;20405;-67
2023/12/06 11:24:48;;;;;;;0.95;0.95;;;;;;;-0.93;73.97;101035.38;5088334;28;20091;-67
2023/12/06 11:27:14;;;;;;;0.60;0.60;;;;;;;-0.93;73.97;101035.38;5106604;28;20113;-67
2023/12/06 11:29:39;;;;;;;0.50;0.50;;;;;;;-0.95;74.26;101034.44;5107187;28;20051;-67
2023/12/06 11:32:10;;;;;;;0.40;0.40;;;;;;;-0.97;74.20;101036.91;5107097;28;20099;-68
2023/12/06 11:34:37;;;;;;;0.60;0.60;;;;;;;-0.93;74.36;101040.47;5107182;28;20103;-67
2023/12/06 11:37:07;;;;;;;0.60;0.60;;;;;;;-0.95;73.90;101026.78;5106901;28;20020;-68
2023/12/06 11:39:33;;;;;;;1.38;1.27;;;;;;;-0.93;74.22;101027.75;5106936;28;20028;-67
2023/12/06 11:41:59;;;;;;;0.40;0.40;;;;;;;-1.00;74.48;101019.78;5106885;28;20031;-67
2023/12/06 11:44:24;;;;;;;0.95;0.95;;;;;;;-0.95;74.31;101021.69;5106908;28;20035;-67
2023/12/06 11:46:55;;;;;;;0.40;0.40;;;;;;;-0.93;74.24;101020.09;5088590;28;20020;-67
2023/12/06 11:49:25;;;;;;;0.50;0.50;;;;;;;-0.90;74.42;101017.69;5105955;28;20042;-68
2023/12/06 11:52:00;;;;;;;0.57;0.57;;;;;;;-0.78;74.20;101032.69;5106641;28;20055;-68
2023/12/06 11:54:27;;;;;;;0.70;0.70;;;;;;;-0.90;74.40;101021.13;5106701;28;20032;-67
2023/12/06 11:56:52;;;;;;;0.50;0.50;;;;;;;-0.76;74.11;101026.88;5106598;28;20051;-68
2023/12/06 11:59:18;;;;;;;0.70;0.70;;;;;;;-0.86;74.19;101017.03;5088304;28;20024;-67
2023/12/06 12:01:45;;;;;;;1.63;1.52;;;;;;;-0.89;74.74;101019.44;5106423;28;20058;-67
2023/12/06 12:04:11;;;;;;;0.68;0.68;;;;;;;-0.87;74.68;101020.38;5106695;28;20024;-68
2023/12/06 12:06:36;;;;;;;0.60;0.60;;;;;;;-0.81;74.46;101007.94;5106335;28;20087;-67
2023/12/06 12:09:02;;;;;;;0.50;0.50;;;;;;;-0.88;74.81;101024.59;5088170;28;20024;-67
2023/12/06 12:11:31;;;;;;;0.60;0.60;;;;;;;-0.82;74.62;101011.28;5106137;28;20020;-68
2023/12/06 12:13:58;;;;;;;0.80;0.80;;;;;;;-0.81;74.47;101009.59;5106465;28;20368;-68
2023/12/06 12:16:24;;;;;;;0.75;0.75;;;;;;;-0.91;75.04;101004.06;5106189;28;20055;-68
2023/12/06 12:18:49;;;;;;;0.50;0.50;;;;;;;-0.91;75.24;101009.16;5106195;28;20063;-68
2023/12/06 12:21:16;;;;;;;0.60;0.60;;;;;;;-0.90;75.47;101010.94;5106190;28;20050;-67
2023/12/06 12:23:43;;;;;;;0.50;0.50;;;;;;;-0.86;75.17;101011.91;5106269;28;20023;-67
2023/12/06 12:26:16;;;;;;;0.50;0.50;;;;;;;-0.91;75.07;101003.19;5105849;28;20488;-68
2023/12/06 12:28:42;;;;;;;0.52;0.52;;;;;;;-0.92;75.68;101012.50;5106160;28;20453;-67
2023/12/06 12:31:13;;;;;;;0.50;0.50;;;;;;;-0.87;75.46;101010.19;5106114;28;20016;-67
2023/12/06 12:33:40;;;;;;;0.65;0.65;;;;;;;-0.80;75.38;101013.91;5106156;28;20024;-67
2023/12/06 12:36:07;;;;;;;0.60;0.60;;;;;;;-0.84;75.13;101015.44;5106031;28;20487;-67
2023/12/06 12:38:34;;;;;;;0.57;0.57;;;;;;;-0.74;74.63;101016.75;5087667;28;20024;-67
2023/12/06 12:40:59;;;;;;;1.85;1.30;;;;;;;-0.78;74.92;101015.72;5087425;28;20043;-68
2023/12/06 12:43:25;;;;;;;0.70;0.70;;;;;;;-0.82;75.19;101018.06;5105946;28;20078;-68
2023/12/06 12:45:50;;;;;;;0.50;0.50;;;;;;;-0.88;75.25;101009.31;5105921;28;20103;-67
2023/12/06 12:48:16;;;;;;;0.50;0.50;;;;;;;-0.86;75.28;101011.91;5105786;28;20053;-67
2023/12/06 12:50:41;;;;;;;1.60;1.15;;;;;;;-0.89;74.78;100996.47;5105886;28;20522;-69
2023/12/06 12:53:07;;;;;;;0.50;0.50;;;;;;;-0.85;75.30;101013.69;5105664;28;20028;-67
2023/12/06 12:55:32;;;;;;;0.52;0.52;;;;;;;-0.90;75.55;101000.72;5105519;28;20028;-69
2023/12/06 12:57:58;;;;;;;0.60;0.60;;;;;;;-0.89;75.36;101005.00;5087527;28;20055;-67
2023/12/06 13:00:29;;;;;;;0.70;0.70;;;;;;;-0.92;75.28;100998.88;5105087;28;20055;-67
2023/12/06 13:02:56;;;;;;;0.70;0.70;;;;;;;-0.89;75.43;101006.69;5105727;28;20051;-67
2023/12/06 13:05:25;;;;;;;0.60;0.60;;;;;;;-0.90;75.46;101007.50;5087524;23;20044;-71
2023/12/06 13:07:58;;;;;;;0.73;0.73;;;;;;;-0.91;75.54;101009.16;5023163;28;20045;-68
2023/12/06 13:10:24;;;;;;;0.50;0.50;;;;;;;-0.94;75.43;101001.34;5066802;23;20080;-69
2023/12/06 13:12:52;;;;;;;0.60;0.60;;;;;;;-0.93;75.57;100999.69;5087623;22;20045;-67
2023/12/06 13:15:18;;;;;;;0.50;0.50;;;;;;;-0.93;75.62;101010.78;5062342;28;20032;-68
2023/12/06 13:17:43;;;;;;;1.33;1.23;;;;;;;-0.92;75.46;101017.63;5065007;28;20025;-68
2023/12/06 13:20:09;;;;;;;0.50;0.50;;;;;;;-1.12;75.18;100971.63;5110885;22;20088;-69
2023/12/06 13:22:35;;;;;;;0.50;0.50;;;;;;;-1.01;75.28;100992.53;5089375;22;20501;-64
2023/12/06 13:25:01;;;;;;;0.60;0.60;;;;;;;-0.95;75.55;101008.94;5064874;28;20041;-66
2023/12/06 13:27:27;;;;;;;0.50;0.50;;;;;;;-0.97;75.67;101002.88;5064836;28;20045;-65
2023/12/06 13:29:52;;;;;;;1.10;1.02;;;;;;;-0.97;75.63;101002.88;5065006;28;20028;-64
2023/12/06 13:32:17;;;;;;;0.60;0.60;;;;;;;-0.99;75.47;100997.72;5064912;28;20465;-65
2023/12/06 13:34:44;;;;;;;0.52;0.52;;;;;;;-0.95;75.20;101002.16;5064908;28;20021;-65
2023/12/06 13:37:13;;;;;;;0.50;0.50;;;;;;;-1.05;75.46;100989.75;5089503;22;20127;-67